• Join FlightAware (Why Join?)
  • Login
  • US Flag 
06:58PM EDT


 

Airport Tracker/Info


-or-


 

Live Flight TrackerFlight Track Log ✈ ASA601 ✈ 14-Jul-2013 ✈ KLAS - KSEA

Flight Track Log - Related Links

Times and Time Zones

All times are in EDT time to prevent confusion due to time zone crossing. See the ASA601 flight status page for this flight to view local times or setup timezone preferences in your user account.

Time Position Orientation Groundspeed Altitude Reporting Facility
EDT Latitude Longitude Course Direction KTS MPH feet Rate Location/Type
01:03AM 36.0753 -115.1739 272° West 185 213 3,200  Level Los Angeles Center
01:03AM 36.0761 -115.2081 272° West 184 212 4,300 1,800 Climbing Los Angeles Center
01:04AM 36.0439 -115.2692 237° Southwest 237 273 6,000 1,380 Climbing Los Angeles Center
01:05AM 36.0136 -115.2803 197° South 245 282 6,500 2,040 Climbing Los Angeles Center
01:06AM 35.9478 -115.3283 211° Southwest 269 310 9,200 2,100 Climbing Los Angeles Center
01:07AM 35.8908 -115.4064 228° Southwest 291 335 10,800 1,620 Climbing Los Angeles Center
01:08AM 35.8883 -115.5336 269° West 345 397 12,600 2,160 Climbing Los Angeles Center
01:09AM 35.8914 -115.6872 271° West 393 452 15,300 2,340 Climbing Los Angeles Center
01:10AM 35.8933 -115.8261 271° West 405 466 17,400 1,860 Climbing Los Angeles Center
01:11AM 35.8992 -115.9519 273° West 430 495 19,200 1,860 Climbing Los Angeles Center
01:12AM 35.9792 -116.0667 311° West 444 511 21,300 2,040 Climbing Los Angeles Center
01:13AM 36.1031 -116.1858 322° Northwest 462 532 23,400 1,800 Climbing Los Angeles Center
01:14AM 36.1886 -116.2997 313° West 466 536 25,000 1,320 Climbing Los Angeles Center
01:15AM 36.2750 -116.4233 311° West 475 547 26,200 1,080 Climbing Los Angeles Center
01:16AM 36.3653 -116.5481 312° West 483 556 27,300 1,260 Climbing Los Angeles Center
01:17AM 36.4567 -116.6739 312° West 491 565 28,900 1,620 Climbing Los Angeles Center
01:18AM 36.5633 -116.8200 312° West 491 565 30,600 1,440 Climbing Los Angeles Center
01:19AM 36.6753 -116.9269 323° Northwest 495 570 31,900 1,260 Climbing Los Angeles Center
01:20AM 36.7894 -117.0239 326° Northwest 497 572 33,200 1,260 Climbing Los Angeles Center
01:21AM 36.8997 -117.1200 325° Northwest 496 571 34,600 1,380 Climbing Los Angeles Center
01:22AM 36.9692 -117.1747 328° Northwest 495 570 35,400 900 Climbing Oakland Center
01:23AM 37.0969 -117.2408 338° Northwest 499 574 36,000 240 Climbing Oakland Center
01:24AM 37.2219 -117.3081 337° Northwest 492 566 36,000  Level Oakland Center
01:24AM 37.2711 -117.3331 338° Northwest 485 558 36,000  Level Los Angeles Center
01:25AM 37.3958 -117.4006 337° Northwest 486 559 36,000  Level Los Angeles Center
01:26AM 37.4717 -117.4436 336° Northwest 490 564 36,000  Level Oakland Center
01:27AM 37.5969 -117.5100 337° Northwest 487 560 36,000  Level Oakland Center
01:28AM 37.7231 -117.5792 337° Northwest 489 563 36,000  Level Oakland Center
01:29AM 37.8478 -117.6458 337° Northwest 483 556 36,000  Level Oakland Center
01:30AM 37.9728 -117.7164 336° Northwest 485 558 36,000  Level Oakland Center
01:31AM 38.0997 -117.7856 337° Northwest 488 562 36,000  Level Oakland Center
01:32AM 38.2258 -117.8547 337° Northwest 489 563 36,000 300 Level Oakland Center
01:33AM 38.3508 -117.9231 337° Northwest 484 557 36,700 900 Climbing Oakland Center
01:34AM 38.4736 -117.9906 337° Northwest 478 550 37,900 600 Climbing Oakland Center
01:35AM 38.5950 -118.0592 336° Northwest 475 547 38,000  Climbing Oakland Center
01:36AM 38.7111 -118.1214 337° Northwest 480 552 38,000  Level Oakland Center
01:37AM 38.8575 -118.2053 336° Northwest 481 554 38,000  Level Oakland Center
01:38AM 38.9797 -118.2756 336° Northwest 482 555 38,000  Level Oakland Center
01:39AM 39.1011 -118.3436 336° Northwest 479 551 38,000  Level Oakland Center
01:40AM 39.2211 -118.4131 336° Northwest 476 548 38,000  Level Oakland Center
01:41AM 39.3281 -118.4731 337° Northwest 473 544 38,000  Level Oakland Center
01:42AM 39.4503 -118.5433 336° Northwest 478 550 38,000  Level Oakland Center
01:43AM 39.5797 -118.6175 336° Northwest 480 552 38,000  Level Oakland Center
01:44AM 39.6981 -118.6878 335° Northwest 476 548 38,000  Level Oakland Center
01:45AM 39.8181 -118.7586 336° Northwest 475 547 38,000  Level Oakland Center
01:46AM 39.9386 -118.8281 336° Northwest 475 547 38,000  Level Oakland Center
01:47AM 40.0622 -118.9011 336° Northwest 486 559 38,000  Level Oakland Center
01:48AM 40.2081 -118.9869 336° Northwest 482 555 38,000  Level Oakland Center
01:49AM 40.3297 -119.0600 335° Northwest 481 554 38,000  Level Oakland Center
01:50AM 40.5011 -119.1611 336° Northwest 484 557 38,000  Level Oakland Center
01:51AM 40.6233 -119.2358 335° Northwest 485 558 38,000  Level Oakland Center
01:52AM 40.7458 -119.3097 335° Northwest 485 558 38,000  Level Oakland Center
01:53AM 40.8636 -119.3794 336° Northwest 483 556 38,000  Level Oakland Center
01:54AM 40.9808 -119.4472 336° Northwest 481 554 38,000  Level Oakland Center
01:55AM 41.0992 -119.5231 334° Northwest 475 547 38,000  Level Oakland Center
01:56AM 41.1975 -119.5825 336° Northwest 477 549 38,000  Level Seattle Center
01:57AM 41.3175 -119.6547 336° Northwest 476 548 38,000  Level Seattle Center
01:58AM 41.4397 -119.7272 336° Northwest 481 554 38,000  Level Seattle Center
01:59AM 41.5594 -119.8019 335° Northwest 477 549 38,000  Level Seattle Center
02:00AM 41.6806 -119.8769 335° Northwest 480 552 38,000  Level Seattle Center
02:01AM 41.7994 -119.9517 335° Northwest 475 547 38,000  Level Seattle Center
02:02AM 41.9203 -120.0261 335° Northwest 478 550 38,000  Level Seattle Center
02:03AM 42.0408 -120.1025 335° Northwest 480 552 38,000  Level Seattle Center
02:04AM 42.1597 -120.1789 335° Northwest 477 549 38,000  Level Seattle Center
02:05AM 42.2811 -120.2542 335° Northwest 479 551 38,000  Level Seattle Center
02:06AM 42.4006 -120.3303 335° Northwest 479 551 38,000  Level Seattle Center
02:07AM 42.5183 -120.4056 335° Northwest 471 542 38,000  Level Seattle Center
02:08AM 42.6375 -120.4797 335° Northwest 472 543 38,000  Level Seattle Center
02:09AM 42.7567 -120.5583 334° Northwest 475 547 38,000  Level Seattle Center
02:10AM 42.9003 -120.6514 335° Northwest 478 550 38,000  Level Seattle Center
02:11AM 43.0158 -120.7267 335° Northwest 470 541 38,000  Level Seattle Center
02:12AM 43.1336 -120.8008 335° Northwest 466 536 38,000  Level Seattle Center
02:13AM 43.2497 -120.8789 334° Northwest 466 536 38,000  Level Seattle Center
02:14AM 43.3667 -120.9544 335° Northwest 466 536 38,000  Level Seattle Center
02:15AM 43.4831 -121.0294 335° Northwest 465 535 38,000  Level Seattle Center
02:16AM 43.5886 -121.0989 335° Northwest 464 534 38,000  Level Seattle Center
02:17AM 43.7147 -121.1842 334° Northwest 463 533 38,000  Level Seattle Center
02:18AM 43.8361 -121.2653 334° Northwest 465 535 38,000  Level Seattle Center
02:19AM 43.9383 -121.3325 335° Northwest 465 535 38,000  Level Seattle Center
02:20AM 44.0558 -121.4131 334° Northwest 470 541 38,000  Level Seattle Center
02:21AM 44.1736 -121.4928 334° Northwest 469 540 38,000  Level Seattle Center
02:22AM 44.2922 -121.5733 334° Northwest 474 545 38,000  Level Seattle Center
02:23AM 44.4097 -121.6519 334° Northwest 469 540 38,000  Level Seattle Center
02:24AM 44.5278 -121.7322 334° Northwest 471 542 38,000  Level Seattle Center
02:25AM 44.6447 -121.8136 334° Northwest 469 540 38,000  Level Seattle Center
02:26AM 44.7850 -121.9106 334° Northwest 468 539 38,000  Level Seattle Center
02:27AM 44.8858 -121.9803 334° Northwest 463 533 38,000  Level Seattle Center
02:28AM 45.0031 -122.0656 333° Northwest 470 541 38,000  Level Seattle Center
02:29AM 45.1192 -122.1458 334° Northwest 469 540 38,000  Level Seattle Center
02:30AM 45.2361 -122.2258 334° Northwest 469 540 38,000  Level Seattle Center
02:31AM 45.3494 -122.3069 333° Northwest 464 534 38,000 -120 Level Seattle Center
02:32AM 45.4639 -122.3872 334° Northwest 461 531 37,800 -1,080 Descending Seattle Center
02:33AM 45.5767 -122.4678 333° Northwest 459 528 35,900 -2,340 Descending Seattle Center
02:34AM 45.6892 -122.5481 334° Northwest 455 524 33,200 -2,940 Descending Seattle Center
02:35AM 45.8336 -122.6100 343° North 455 524 30,000 -2,640 Descending Seattle Center
02:36AM 45.9542 -122.6414 350° North 446 513 28,000 -2,040 Descending Seattle Center
02:37AM 46.0728 -122.6403 360° North 439 505 25,900 -2,100 Descending Seattle Center
02:38AM 46.1858 -122.6275 North 418 481 23,800 -2,400 Descending Seattle Center
02:39AM 46.3022 -122.6236 North 405 466 21,200 -2,520 Descending Seattle Center
02:40AM 46.4083 -122.6142 North 393 452 18,800 -2,220 Descending Seattle Center
02:41AM 46.5114 -122.6056 North 378 435 16,800 -2,040 Descending Seattle Center
02:42AM 46.6106 -122.5989 North 359 413 14,800 -1,980 Descending Seattle Center
02:44AM 46.7081 -122.5897 North 352 405 12,900 -1,980 Descending Seattle Center
02:45AM 46.8078 -122.5531 14° North 339 390 10,900 -1,500 Descending Seattle Center
02:46AM 46.8900 -122.4994 24° Northeast 321 369 9,900 -1,140 Descending Seattle Center
02:47AM 46.9669 -122.4583 20° North 297 342 8,700 -1,260 Descending Seattle Center
02:48AM 47.0400 -122.4203 20° North 282 325 7,400 -1,440 Descending Seattle Center
02:49AM 47.1108 -122.3831 20° North 273 314 5,900 -1,440 Descending Seattle Center
02:50AM 47.1831 -122.3525 16° North 270 311 4,600 -960 Descending Seattle Center
02:51AM 47.2500 -122.3267 15° North 251 289 4,000 -720 Descending Seattle Center
02:52AM 47.3081 -122.3211 North 212 244 3,200 -1,020 Descending Seattle Center
02:53AM 47.3575 -122.3186 North 182 209 2,000 -960 Descending Seattle Center
02:54AM 47.3975 -122.3189 360° North 148 170 1,300 -780 Descending Seattle Center
02:55AM 47.4369 -122.3186 360° North 143 165 500 -480 Descending Seattle Center
02:56AM 47.4767 -122.3186 360° North 143 165 400 -120 Descending Seattle Center